Terminal Aerodrome Forecast
Issued by NWS

Home | Current Version | Previous Version | Text Only | Print | Product List | Glossary On
Versions: 1 2 3 4 5 6 7 8 9 10 11 12 13 14 15
000
FTUS44 KBMX 031100
TAFANB
TAF
KANB 031129Z 0312/0412 05005KT 2SM BR OVC006
     FM031600 12006KT 4SM -SHRA BR OVC008
     FM040200 19005KT 4SM BR OVC003=

USA.gov is the U.S. government's official web portal to all federal, state and local government web resources and services.